Terminal Aerodrome Forecast
Issued by NWS

Home | Current Version | Previous Version | Graphics & Text | Print | Product List | Glossary On
Versions: 1 2 3 4 5 6 7 8 9 10 11 12 13 14 15 16 17 18 19 20 21 22 23 24 25 26
000
FTUS43 KABR 250800 AAB
TAFPIR
TAF AMD
KPIR 250848Z 2509/2606 08013KT 2SM RA BR BKN045
     FM250915 08011KT P6SM OVC015
     FM251100 06013KT P6SM BKN015 OVC045
     FM252000 10010KT P6SM SCT020=

USA.gov is the U.S. government's official web portal to all federal, state and local government web resources and services.